sensor_id;sensor_type;location;lat;lon;timestamp;temperature;humidity
26745;DHT22;14342;50.960;13.880;2022-11-13T00:00:20;4.00;99.90
26745;DHT22;14342;50.960;13.880;2022-11-13T00:01:24;4.00;99.90
26745;DHT22;14342;50.960;13.880;2022-11-13T00:02:25;4.00;99.90
26745;DHT22;14342;50.960;13.880;2022-11-13T00:03:28;3.70;99.90
26745;DHT22;14342;50.960;13.880;2022-11-13T00:04:28;4.00;99.90
26745;DHT22;14342;50.960;13.880;2022-11-13T00:05:30;4.00;99.90
26745;DHT22;14342;50.960;13.880;2022-11-13T00:06:31;4.00;99.90
26745;DHT22;14342;50.960;13.880;2022-11-13T00:07:32;3.90;99.90
26745;DHT22;14342;50.960;13.880;2022-11-13T00:08:33;3.90;99.90
26745;DHT22;14342;50.960;13.880;2022-11-13T00:09:35;3.60;99.90
26745;DHT22;14342;50.960;13.880;2022-11-13T00:10:35;3.90;99.90
26745;DHT22;14342;50.960;13.880;2022-11-13T00:11:37;3.90;99.90
26745;DHT22;14342;50.960;13.880;2022-11-13T00:12:39;3.90;99.90
26745;DHT22;14342;50.960;13.880;2022-11-13T00:13:39;3.90;99.90
26745;DHT22;14342;50.960;13.880;2022-11-13T00:14:42;3.90;99.90
26745;DHT22;14342;50.960;13.880;2022-11-13T00:15:43;3.90;99.90
26745;DHT22;14342;50.960;13.880;2022-11-13T00:16:46;3.90;99.90
26745;DHT22;14342;50.960;13.880;2022-11-13T00:17:47;4.00;99.90
26745;DHT22;14342;50.960;13.880;2022-11-13T00:18:48;4.10;99.90
26745;DHT22;14342;50.960;13.880;2022-11-13T00:19:50;4.10;99.90
26745;DHT22;14342;50.960;13.880;2022-11-13T00:20:51;4.20;99.90
26745;DHT22;14342;50.960;13.880;2022-11-13T00:21:52;4.30;99.90
26745;DHT22;14342;50.960;13.880;2022-11-13T00:22:56;4.40;99.90
26745;DHT22;14342;50.960;13.880;2022-11-13T00:23:57;4.40;99.90
26745;DHT22;14342;50.960;13.880;2022-11-13T00:24:58;4.50;99.90
26745;DHT22;14342;50.960;13.880;2022-11-13T00:26:03;4.40;99.90
26745;DHT22;14342;50.960;13.880;2022-11-13T00:27:04;4.40;99.90
26745;DHT22;14342;50.960;13.880;2022-11-13T00:28:06;4.50;99.90
26745;DHT22;14342;50.960;13.880;2022-11-13T00:29:07;4.50;99.90
26745;DHT22;14342;50.960;13.880;2022-11-13T00:30:09;4.40;99.90
26745;DHT22;14342;50.960;13.880;2022-11-13T00:31:10;4.50;99.90
26745;DHT22;14342;50.960;13.880;2022-11-13T00:32:14;4.40;99.90
26745;DHT22;14342;50.960;13.880;2022-11-13T00:33:14;4.30;99.90
26745;DHT22;14342;50.960;13.880;2022-11-13T00:34:16;4.20;99.90
26745;DHT22;14342;50.960;13.880;2022-11-13T00:35:17;4.00;99.90
26745;DHT22;14342;50.960;13.880;2022-11-13T00:36:19;3.90;99.90
26745;DHT22;14342;50.960;13.880;2022-11-13T00:37:21;3.80;99.90
26745;DHT22;14342;50.960;13.880;2022-11-13T00:38:22;3.80;99.90
26745;DHT22;14342;50.960;13.880;2022-11-13T00:39:23;3.80;99.90
26745;DHT22;14342;50.960;13.880;2022-11-13T00:40:25;3.70;99.90
26745;DHT22;14342;50.960;13.880;2022-11-13T00:41:25;3.70;99.90
26745;DHT22;14342;50.960;13.880;2022-11-13T00:42:27;3.70;99.90
26745;DHT22;14342;50.960;13.880;2022-11-13T00:43:27;3.50;99.90
26745;DHT22;14342;50.960;13.880;2022-11-13T00:44:29;3.60;99.90
26745;DHT22;14342;50.960;13.880;2022-11-13T00:45:30;3.50;99.90
26745;DHT22;14342;50.960;13.880;2022-11-13T00:46:31;3.50;99.90
26745;DHT22;14342;50.960;13.880;2022-11-13T00:47:34;3.50;99.90
26745;DHT22;14342;50.960;13.880;2022-11-13T00:48:35;3.50;99.90
26745;DHT22;14342;50.960;13.880;2022-11-13T00:49:37;3.50;99.90
26745;DHT22;14342;50.960;13.880;2022-11-13T00:50:38;3.50;99.90
26745;DHT22;14342;50.960;13.880;2022-11-13T00:51:40;3.50;99.90
26745;DHT22;14342;50.960;13.880;2022-11-13T00:52:40;3.60;99.90
26745;DHT22;14342;50.960;13.880;2022-11-13T00:53:42;3.70;99.90
26745;DHT22;14342;50.960;13.880;2022-11-13T00:54:43;3.70;99.90
26745;DHT22;14342;50.960;13.880;2022-11-13T00:55:44;3.80;99.90
26745;DHT22;14342;50.960;13.880;2022-11-13T00:56:45;3.80;99.90
26745;DHT22;14342;50.960;13.880;2022-11-13T00:57:47;3.80;99.90
26745;DHT22;14342;50.960;13.880;2022-11-13T00:58:47;3.90;99.90
26745;DHT22;14342;50.960;13.880;2022-11-13T00:59:49;3.50;99.90
26745;DHT22;14342;50.960;13.880;2022-11-13T01:00:50;3.90;99.90
26745;DHT22;14342;50.960;13.880;2022-11-13T01:01:51;3.90;99.90
26745;DHT22;14342;50.960;13.880;2022-11-13T01:02:53;3.80;99.90
26745;DHT22;14342;50.960;13.880;2022-11-13T01:03:55;3.80;99.90
26745;DHT22;14342;50.960;13.880;2022-11-13T01:04:56;3.80;99.90
26745;DHT22;14342;50.960;13.880;2022-11-13T01:05:58;3.90;99.90
26745;DHT22;14342;50.960;13.880;2022-11-13T01:06:59;3.90;99.90
26745;DHT22;14342;50.960;13.880;2022-11-13T01:08:01;3.90;99.90
26745;DHT22;14342;50.960;13.880;2022-11-13T01:09:04;4.00;99.90
26745;DHT22;14342;50.960;13.880;2022-11-13T01:10:06;4.00;99.90
26745;DHT22;14342;50.960;13.880;2022-11-13T01:11:08;4.10;99.90
26745;DHT22;14342;50.960;13.880;2022-11-13T01:12:10;4.10;99.90
26745;DHT22;14342;50.960;13.880;2022-11-13T01:13:10;4.10;99.90
26745;DHT22;14342;50.960;13.880;2022-11-13T01:14:12;4.30;99.90
26745;DHT22;14342;50.960;13.880;2022-11-13T01:15:13;4.30;99.90
26745;DHT22;14342;50.960;13.880;2022-11-13T01:16:15;4.40;99.90
26745;DHT22;14342;50.960;13.880;2022-11-13T01:17:16;4.50;99.90
26745;DHT22;14342;50.960;13.880;2022-11-13T01:18:19;4.50;99.90
26745;DHT22;14342;50.960;13.880;2022-11-13T01:19:20;4.50;99.90
26745;DHT22;14342;50.960;13.880;2022-11-13T01:20:22;4.50;99.90
26745;DHT22;14342;50.960;13.880;2022-11-13T01:21:23;4.60;99.90
26745;DHT22;14342;50.960;13.880;2022-11-13T01:22:25;4.80;99.90
26745;DHT22;14342;50.960;13.880;2022-11-13T01:23:26;4.70;99.90
26745;DHT22;14342;50.960;13.880;2022-11-13T01:24:28;4.70;99.90
26745;DHT22;14342;50.960;13.880;2022-11-13T01:25:29;4.70;99.90
26745;DHT22;14342;50.960;13.880;2022-11-13T01:26:30;4.70;99.90
26745;DHT22;14342;50.960;13.880;2022-11-13T01:27:31;4.70;99.90
26745;DHT22;14342;50.960;13.880;2022-11-13T01:28:33;4.70;99.90
26745;DHT22;14342;50.960;13.880;2022-11-13T01:29:34;4.80;99.90
26745;DHT22;14342;50.960;13.880;2022-11-13T01:30:37;4.80;99.90
26745;DHT22;14342;50.960;13.880;2022-11-13T01:31:37;4.50;99.90
26745;DHT22;14342;50.960;13.880;2022-11-13T01:32:39;4.80;99.90
26745;DHT22;14342;50.960;13.880;2022-11-13T01:33:41;4.80;99.90
26745;DHT22;14342;50.960;13.880;2022-11-13T01:34:43;4.80;99.90
26745;DHT22;14342;50.960;13.880;2022-11-13T01:35:43;4.80;99.90
26745;DHT22;14342;50.960;13.880;2022-11-13T01:36:45;4.80;99.90
26745;DHT22;14342;50.960;13.880;2022-11-13T01:37:46;4.90;99.90
26745;DHT22;14342;50.960;13.880;2022-11-13T01:38:48;4.90;99.90
26745;DHT22;14342;50.960;13.880;2022-11-13T01:39:49;4.90;99.90
26745;DHT22;14342;50.960;13.880;2022-11-13T01:40:50;5.00;99.90
26745;DHT22;14342;50.960;13.880;2022-11-13T01:41:51;5.00;99.90
26745;DHT22;14342;50.960;13.880;2022-11-13T01:42:53;5.10;99.90
26745;DHT22;14342;50.960;13.880;2022-11-13T01:43:54;5.10;99.90
26745;DHT22;14342;50.960;13.880;2022-11-13T01:44:56;5.20;99.90
26745;DHT22;14342;50.960;13.880;2022-11-13T01:46:11;5.10;99.90
26745;DHT22;14342;50.960;13.880;2022-11-13T01:47:13;5.00;99.90
26745;DHT22;14342;50.960;13.880;2022-11-13T01:48:14;5.00;99.90
26745;DHT22;14342;50.960;13.880;2022-11-13T01:49:21;5.00;99.90
26745;DHT22;14342;50.960;13.880;2022-11-13T01:50:24;4.90;99.90
26745;DHT22;14342;50.960;13.880;2022-11-13T01:51:27;4.90;99.90
26745;DHT22;14342;50.960;13.880;2022-11-13T01:52:30;4.90;99.90
26745;DHT22;14342;50.960;13.880;2022-11-13T01:53:32;4.80;99.90
26745;DHT22;14342;50.960;13.880;2022-11-13T01:54:34;4.80;99.90
26745;DHT22;14342;50.960;13.880;2022-11-13T01:55:37;4.80;99.90
26745;DHT22;14342;50.960;13.880;2022-11-13T01:56:38;4.70;99.90
26745;DHT22;14342;50.960;13.880;2022-11-13T01:57:40;4.80;99.90
26745;DHT22;14342;50.960;13.880;2022-11-13T01:58:41;4.80;99.90
26745;DHT22;14342;50.960;13.880;2022-11-13T01:59:44;4.90;99.90
26745;DHT22;14342;50.960;13.880;2022-11-13T02:00:46;4.90;99.90
26745;DHT22;14342;50.960;13.880;2022-11-13T02:01:48;5.00;99.90
26745;DHT22;14342;50.960;13.880;2022-11-13T02:02:48;5.00;99.90
26745;DHT22;14342;50.960;13.880;2022-11-13T02:03:50;5.00;99.90
26745;DHT22;14342;50.960;13.880;2022-11-13T02:04:52;5.00;99.90
26745;DHT22;14342;50.960;13.880;2022-11-13T02:05:54;5.00;99.90
26745;DHT22;14342;50.960;13.880;2022-11-13T02:06:56;5.00;99.90
26745;DHT22;14342;50.960;13.880;2022-11-13T02:07:58;4.90;99.90
26745;DHT22;14342;50.960;13.880;2022-11-13T02:08:59;4.90;99.90
26745;DHT22;14342;50.960;13.880;2022-11-13T02:10:01;4.90;99.90
26745;DHT22;14342;50.960;13.880;2022-11-13T02:11:03;4.90;99.90
26745;DHT22;14342;50.960;13.880;2022-11-13T02:12:03;4.80;99.90
26745;DHT22;14342;50.960;13.880;2022-11-13T02:13:06;4.70;99.90
26745;DHT22;14342;50.960;13.880;2022-11-13T02:14:07;4.70;99.90
26745;DHT22;14342;50.960;13.880;2022-11-13T02:15:09;4.90;99.90
26745;DHT22;14342;50.960;13.880;2022-11-13T02:16:10;4.50;99.90
26745;DHT22;14342;50.960;13.880;2022-11-13T02:17:13;4.30;99.90
26745;DHT22;14342;50.960;13.880;2022-11-13T02:18:16;4.20;99.90
26745;DHT22;14342;50.960;13.880;2022-11-13T02:19:18;4.10;99.90
26745;DHT22;14342;50.960;13.880;2022-11-13T02:20:24;4.00;99.90
26745;DHT22;14342;50.960;13.880;2022-11-13T02:21:30;3.90;99.90
26745;DHT22;14342;50.960;13.880;2022-11-13T02:22:33;3.80;99.90
26745;DHT22;14342;50.960;13.880;2022-11-13T02:23:39;3.80;99.90
26745;DHT22;14342;50.960;13.880;2022-11-13T02:24:44;3.80;99.90
26745;DHT22;14342;50.960;13.880;2022-11-13T02:25:47;3.80;99.90
26745;DHT22;14342;50.960;13.880;2022-11-13T02:26:49;3.80;99.90
26745;DHT22;14342;50.960;13.880;2022-11-13T02:27:52;3.80;99.90
26745;DHT22;14342;50.960;13.880;2022-11-13T02:28:53;3.80;99.90
26745;DHT22;14342;50.960;13.880;2022-11-13T02:29:55;3.90;99.90
26745;DHT22;14342;50.960;13.880;2022-11-13T02:30:55;3.80;99.90
26745;DHT22;14342;50.960;13.880;2022-11-13T02:32:00;3.70;99.90
26745;DHT22;14342;50.960;13.880;2022-11-13T02:33:01;3.70;99.90
26745;DHT22;14342;50.960;13.880;2022-11-13T02:34:02;3.70;99.90
26745;DHT22;14342;50.960;13.880;2022-11-13T02:35:03;3.70;99.90
26745;DHT22;14342;50.960;13.880;2022-11-13T02:36:06;3.80;99.90
26745;DHT22;14342;50.960;13.880;2022-11-13T02:37:07;3.80;99.90
26745;DHT22;14342;50.960;13.880;2022-11-13T02:38:09;3.80;99.90
26745;DHT22;14342;50.960;13.880;2022-11-13T02:39:10;3.80;99.90
26745;DHT22;14342;50.960;13.880;2022-11-13T02:40:14;3.60;99.90
26745;DHT22;14342;50.960;13.880;2022-11-13T02:41:15;3.50;99.90
26745;DHT22;14342;50.960;13.880;2022-11-13T02:42:16;3.40;99.90
26745;DHT22;14342;50.960;13.880;2022-11-13T02:43:17;3.40;99.90
26745;DHT22;14342;50.960;13.880;2022-11-13T02:44:19;3.30;99.90
26745;DHT22;14342;50.960;13.880;2022-11-13T02:45:20;3.30;99.90
26745;DHT22;14342;50.960;13.880;2022-11-13T02:46:22;3.30;99.90
26745;DHT22;14342;50.960;13.880;2022-11-13T02:47:22;3.30;99.90
26745;DHT22;14342;50.960;13.880;2022-11-13T02:48:24;3.30;99.90
26745;DHT22;14342;50.960;13.880;2022-11-13T02:49:25;3.30;99.90
26745;DHT22;14342;50.960;13.880;2022-11-13T02:50:26;3.50;99.90
26745;DHT22;14342;50.960;13.880;2022-11-13T02:51:27;3.20;99.90
26745;DHT22;14342;50.960;13.880;2022-11-13T02:52:29;3.20;99.90
26745;DHT22;14342;50.960;13.880;2022-11-13T02:53:30;3.20;99.90
26745;DHT22;14342;50.960;13.880;2022-11-13T02:54:31;3.30;99.90
26745;DHT22;14342;50.960;13.880;2022-11-13T02:55:34;3.40;99.90
26745;DHT22;14342;50.960;13.880;2022-11-13T02:56:35;3.30;99.90
26745;DHT22;14342;50.960;13.880;2022-11-13T02:57:36;3.20;99.90
26745;DHT22;14342;50.960;13.880;2022-11-13T02:58:38;3.20;99.90
26745;DHT22;14342;50.960;13.880;2022-11-13T02:59:38;3.20;99.90
26745;DHT22;14342;50.960;13.880;2022-11-13T03:00:40;3.20;99.90
26745;DHT22;14342;50.960;13.880;2022-11-13T03:01:41;3.20;99.90
26745;DHT22;14342;50.960;13.880;2022-11-13T03:02:43;3.30;99.90
26745;DHT22;14342;50.960;13.880;2022-11-13T03:03:43;3.30;99.90
26745;DHT22;14342;50.960;13.880;2022-11-13T03:04:45;3.30;99.90
26745;DHT22;14342;50.960;13.880;2022-11-13T03:05:47;3.30;99.90
26745;DHT22;14342;50.960;13.880;2022-11-13T03:06:49;3.30;99.90
26745;DHT22;14342;50.960;13.880;2022-11-13T03:07:49;3.40;99.90
26745;DHT22;14342;50.960;13.880;2022-11-13T03:08:51;3.30;99.90
26745;DHT22;14342;50.960;13.880;2022-11-13T03:09:52;3.30;99.90
26745;DHT22;14342;50.960;13.880;2022-11-13T03:10:55;3.30;99.90
26745;DHT22;14342;50.960;13.880;2022-11-13T03:11:55;3.30;99.90
26745;DHT22;14342;50.960;13.880;2022-11-13T03:12:57;3.30;99.90
26745;DHT22;14342;50.960;13.880;2022-11-13T03:13:58;3.30;99.90
26745;DHT22;14342;50.960;13.880;2022-11-13T03:15:00;3.30;99.90
26745;DHT22;14342;50.960;13.880;2022-11-13T03:16:05;3.30;99.90
26745;DHT22;14342;50.960;13.880;2022-11-13T03:17:07;3.40;99.90
26745;DHT22;14342;50.960;13.880;2022-11-13T03:18:08;3.30;99.90
26745;DHT22;14342;50.960;13.880;2022-11-13T03:19:11;3.40;99.90
26745;DHT22;14342;50.960;13.880;2022-11-13T03:20:12;3.30;99.90
26745;DHT22;14342;50.960;13.880;2022-11-13T03:21:14;2.90;99.90
26745;DHT22;14342;50.960;13.880;2022-11-13T03:22:15;3.30;99.90
26745;DHT22;14342;50.960;13.880;2022-11-13T03:23:17;3.20;99.90
26745;DHT22;14342;50.960;13.880;2022-11-13T03:24:17;3.40;99.90
26745;DHT22;14342;50.960;13.880;2022-11-13T03:25:19;3.20;99.90
26745;DHT22;14342;50.960;13.880;2022-11-13T03:26:21;3.20;99.90
26745;DHT22;14342;50.960;13.880;2022-11-13T03:27:23;3.10;99.90
26745;DHT22;14342;50.960;13.880;2022-11-13T03:28:23;3.20;99.90
26745;DHT22;14342;50.960;13.880;2022-11-13T03:29:25;3.20;99.90
26745;DHT22;14342;50.960;13.880;2022-11-13T03:30:26;3.10;99.90
26745;DHT22;14342;50.960;13.880;2022-11-13T03:31:27;3.20;99.90
26745;DHT22;14342;50.960;13.880;2022-11-13T03:32:28;3.20;99.90
26745;DHT22;14342;50.960;13.880;2022-11-13T03:33:30;3.20;99.90
26745;DHT22;14342;50.960;13.880;2022-11-13T03:34:31;3.30;99.90
26745;DHT22;14342;50.960;13.880;2022-11-13T03:35:32;3.40;99.90
26745;DHT22;14342;50.960;13.880;2022-11-13T03:36:33;3.30;99.90
26745;DHT22;14342;50.960;13.880;2022-11-13T03:37:34;3.30;99.90
26745;DHT22;14342;50.960;13.880;2022-11-13T03:38:35;3.20;99.90
26745;DHT22;14342;50.960;13.880;2022-11-13T03:39:37;3.20;99.90
26745;DHT22;14342;50.960;13.880;2022-11-13T03:40:37;3.20;99.90
26745;DHT22;14342;50.960;13.880;2022-11-13T03:41:40;3.20;99.90
26745;DHT22;14342;50.960;13.880;2022-11-13T03:42:41;3.20;99.90
26745;DHT22;14342;50.960;13.880;2022-11-13T03:43:43;3.10;99.90
26745;DHT22;14342;50.960;13.880;2022-11-13T03:44:43;3.10;99.90
26745;DHT22;14342;50.960;13.880;2022-11-13T03:45:45;3.20;99.90
26745;DHT22;14342;50.960;13.880;2022-11-13T03:46:46;3.20;99.90
26745;DHT22;14342;50.960;13.880;2022-11-13T03:47:48;3.20;99.90
26745;DHT22;14342;50.960;13.880;2022-11-13T03:48:49;3.30;99.90
26745;DHT22;14342;50.960;13.880;2022-11-13T03:49:50;3.30;99.90
26745;DHT22;14342;50.960;13.880;2022-11-13T03:50:52;3.30;99.90
26745;DHT22;14342;50.960;13.880;2022-11-13T03:51:53;3.30;99.90
26745;DHT22;14342;50.960;13.880;2022-11-13T03:52:54;3.30;99.90
26745;DHT22;14342;50.960;13.880;2022-11-13T03:53:56;3.20;99.90
26745;DHT22;14342;50.960;13.880;2022-11-13T03:54:56;3.30;99.90
26745;DHT22;14342;50.960;13.880;2022-11-13T03:55:58;3.30;99.90
26745;DHT22;14342;50.960;13.880;2022-11-13T03:57:00;3.30;99.90
26745;DHT22;14342;50.960;13.880;2022-11-13T03:58:02;3.30;99.90
26745;DHT22;14342;50.960;13.880;2022-11-13T03:59:03;3.40;99.90
26745;DHT22;14342;50.960;13.880;2022-11-13T04:00:05;3.50;99.90
26745;DHT22;14342;50.960;13.880;2022-11-13T04:01:06;3.50;99.90
26745;DHT22;14342;50.960;13.880;2022-11-13T04:02:07;3.50;99.90
26745;DHT22;14342;50.960;13.880;2022-11-13T04:03:08;3.50;99.90
26745;DHT22;14342;50.960;13.880;2022-11-13T04:04:10;3.50;99.90
26745;DHT22;14342;50.960;13.880;2022-11-13T04:05:10;3.50;99.90
26745;DHT22;14342;50.960;13.880;2022-11-13T04:06:12;3.40;99.90
26745;DHT22;14342;50.960;13.880;2022-11-13T04:07:14;3.40;99.90
26745;DHT22;14342;50.960;13.880;2022-11-13T04:08:16;3.50;99.90
26745;DHT22;14342;50.960;13.880;2022-11-13T04:09:16;3.70;99.90
26745;DHT22;14342;50.960;13.880;2022-11-13T04:10:18;3.70;99.90
26745;DHT22;14342;50.960;13.880;2022-11-13T04:11:19;3.70;99.90
26745;DHT22;14342;50.960;13.880;2022-11-13T04:12:22;3.70;99.90
26745;DHT22;14342;50.960;13.880;2022-11-13T04:13:23;3.70;99.90
26745;DHT22;14342;50.960;13.880;2022-11-13T04:14:24;3.60;99.90
26745;DHT22;14342;50.960;13.880;2022-11-13T04:15:25;3.50;99.90
26745;DHT22;14342;50.960;13.880;2022-11-13T04:16:27;3.40;99.90
26745;DHT22;14342;50.960;13.880;2022-11-13T04:17:27;3.40;99.90
26745;DHT22;14342;50.960;13.880;2022-11-13T04:18:29;3.40;99.90
26745;DHT22;14342;50.960;13.880;2022-11-13T04:19:29;3.40;99.90
26745;DHT22;14342;50.960;13.880;2022-11-13T04:20:31;3.20;99.90
26745;DHT22;14342;50.960;13.880;2022-11-13T04:21:32;3.20;99.90
26745;DHT22;14342;50.960;13.880;2022-11-13T04:22:33;3.20;99.90
26745;DHT22;14342;50.960;13.880;2022-11-13T04:23:34;3.20;99.90
26745;DHT22;14342;50.960;13.880;2022-11-13T04:24:36;3.10;99.90
26745;DHT22;14342;50.960;13.880;2022-11-13T04:25:36;3.10;99.90
26745;DHT22;14342;50.960;13.880;2022-11-13T04:26:38;3.10;99.90
26745;DHT22;14342;50.960;13.880;2022-11-13T04:27:40;3.00;99.90
26745;DHT22;14342;50.960;13.880;2022-11-13T04:28:42;3.00;99.90
26745;DHT22;14342;50.960;13.880;2022-11-13T04:29:42;2.90;99.90
26745;DHT22;14342;50.960;13.880;2022-11-13T04:30:44;2.90;99.90
26745;DHT22;14342;50.960;13.880;2022-11-13T04:31:45;2.80;99.90
26745;DHT22;14342;50.960;13.880;2022-11-13T04:32:46;2.80;99.90
26745;DHT22;14342;50.960;13.880;2022-11-13T04:33:47;2.80;99.90
26745;DHT22;14342;50.960;13.880;2022-11-13T04:34:49;2.80;99.90
26745;DHT22;14342;50.960;13.880;2022-11-13T04:35:49;2.80;99.90
26745;DHT22;14342;50.960;13.880;2022-11-13T04:36:51;2.90;99.90
26745;DHT22;14342;50.960;13.880;2022-11-13T04:37:52;2.90;99.90
26745;DHT22;14342;50.960;13.880;2022-11-13T04:38:53;2.90;99.90
26745;DHT22;14342;50.960;13.880;2022-11-13T04:39:54;2.90;99.90
26745;DHT22;14342;50.960;13.880;2022-11-13T04:40:56;2.80;99.90
26745;DHT22;14342;50.960;13.880;2022-11-13T04:42:11;2.80;99.90
26745;DHT22;14342;50.960;13.880;2022-11-13T04:43:32;2.80;99.90
26745;DHT22;14342;50.960;13.880;2022-11-13T04:44:33;2.80;99.90
26745;DHT22;14342;50.960;13.880;2022-11-13T04:45:34;2.80;99.90
26745;DHT22;14342;50.960;13.880;2022-11-13T04:46:35;2.80;99.90
26745;DHT22;14342;50.960;13.880;2022-11-13T04:47:37;2.70;99.90
26745;DHT22;14342;50.960;13.880;2022-11-13T04:48:37;2.70;99.90
26745;DHT22;14342;50.960;13.880;2022-11-13T04:49:39;2.30;99.90
26745;DHT22;14342;50.960;13.880;2022-11-13T04:50:40;2.70;99.90
26745;DHT22;14342;50.960;13.880;2022-11-13T04:51:41;2.70;99.90
26745;DHT22;14342;50.960;13.880;2022-11-13T04:52:42;2.70;99.90
26745;DHT22;14342;50.960;13.880;2022-11-13T04:53:44;2.70;99.90
26745;DHT22;14342;50.960;13.880;2022-11-13T04:54:45;2.70;99.90
26745;DHT22;14342;50.960;13.880;2022-11-13T04:55:46;2.70;99.90
26745;DHT22;14342;50.960;13.880;2022-11-13T04:56:47;2.80;99.90
26745;DHT22;14342;50.960;13.880;2022-11-13T04:57:49;2.80;99.90
26745;DHT22;14342;50.960;13.880;2022-11-13T04:58:52;2.80;99.90
26745;DHT22;14342;50.960;13.880;2022-11-13T04:59:53;2.90;99.90
26745;DHT22;14342;50.960;13.880;2022-11-13T05:00:54;2.80;99.90
26745;DHT22;14342;50.960;13.880;2022-11-13T05:01:56;2.70;99.90
26745;DHT22;14342;50.960;13.880;2022-11-13T05:02:56;2.70;99.90
26745;DHT22;14342;50.960;13.880;2022-11-13T05:03:58;2.70;99.90
26745;DHT22;14342;50.960;13.880;2022-11-13T05:04:59;2.80;99.90
26745;DHT22;14342;50.960;13.880;2022-11-13T05:06:01;2.70;99.90
26745;DHT22;14342;50.960;13.880;2022-11-13T05:07:01;2.70;99.90
26745;DHT22;14342;50.960;13.880;2022-11-13T05:08:03;2.60;99.90
26745;DHT22;14342;50.960;13.880;2022-11-13T05:09:04;2.50;99.90
26745;DHT22;14342;50.960;13.880;2022-11-13T05:10:06;2.50;99.90
26745;DHT22;14342;50.960;13.880;2022-11-13T05:11:06;2.20;99.90
26745;DHT22;14342;50.960;13.880;2022-11-13T05:12:08;2.50;99.90
26745;DHT22;14342;50.960;13.880;2022-11-13T05:13:09;2.50;99.90
26745;DHT22;14342;50.960;13.880;2022-11-13T05:14:12;2.70;99.90
26745;DHT22;14342;50.960;13.880;2022-11-13T05:15:13;2.40;99.90
26745;DHT22;14342;50.960;13.880;2022-11-13T05:16:14;2.40;99.90
26745;DHT22;14342;50.960;13.880;2022-11-13T05:17:16;2.40;99.90
26745;DHT22;14342;50.960;13.880;2022-11-13T05:18:17;2.40;99.90
26745;DHT22;14342;50.960;13.880;2022-11-13T05:19:19;2.40;99.90
26745;DHT22;14342;50.960;13.880;2022-11-13T05:20:19;2.40;99.90
26745;DHT22;14342;50.960;13.880;2022-11-13T05:21:21;2.40;99.90
26745;DHT22;14342;50.960;13.880;2022-11-13T05:22:22;2.30;99.90
26745;DHT22;14342;50.960;13.880;2022-11-13T05:23:24;2.30;99.90
26745;DHT22;14342;50.960;13.880;2022-11-13T05:24:24;2.30;99.90
26745;DHT22;14342;50.960;13.880;2022-11-13T05:25:26;2.30;99.90
26745;DHT22;14342;50.960;13.880;2022-11-13T05:26:27;2.30;99.90
26745;DHT22;14342;50.960;13.880;2022-11-13T05:27:29;2.30;99.90
26745;DHT22;14342;50.960;13.880;2022-11-13T05:28:29;2.30;99.90
26745;DHT22;14342;50.960;13.880;2022-11-13T05:29:32;2.70;99.90
26745;DHT22;14342;50.960;13.880;2022-11-13T05:30:33;2.30;99.90
26745;DHT22;14342;50.960;13.880;2022-11-13T05:31:35;2.30;99.90
26745;DHT22;14342;50.960;13.880;2022-11-13T05:32:35;2.30;99.90
26745;DHT22;14342;50.960;13.880;2022-11-13T05:33:39;2.30;99.90
26745;DHT22;14342;50.960;13.880;2022-11-13T05:34:40;2.30;99.90
26745;DHT22;14342;50.960;13.880;2022-11-13T05:35:41;2.30;99.90
26745;DHT22;14342;50.960;13.880;2022-11-13T05:36:42;2.30;99.90
26745;DHT22;14342;50.960;13.880;2022-11-13T05:37:44;2.30;99.90
26745;DHT22;14342;50.960;13.880;2022-11-13T05:38:44;2.40;99.90
26745;DHT22;14342;50.960;13.880;2022-11-13T05:39:46;2.30;99.90
26745;DHT22;14342;50.960;13.880;2022-11-13T05:40:47;2.40;99.90
26745;DHT22;14342;50.960;13.880;2022-11-13T05:41:48;2.40;99.90
26745;DHT22;14342;50.960;13.880;2022-11-13T05:42:49;2.40;99.90
26745;DHT22;14342;50.960;13.880;2022-11-13T05:43:51;2.40;99.90
26745;DHT22;14342;50.960;13.880;2022-11-13T05:44:53;2.50;99.90
26745;DHT22;14342;50.960;13.880;2022-11-13T05:45:58;2.50;99.90
26745;DHT22;14342;50.960;13.880;2022-11-13T05:46:58;2.50;99.90
26745;DHT22;14342;50.960;13.880;2022-11-13T05:48:00;2.50;99.90
26745;DHT22;14342;50.960;13.880;2022-11-13T05:49:01;2.50;99.90
26745;DHT22;14342;50.960;13.880;2022-11-13T05:50:03;2.50;99.90
26745;DHT22;14342;50.960;13.880;2022-11-13T05:51:04;2.50;99.90
26745;DHT22;14342;50.960;13.880;2022-11-13T05:52:06;2.50;99.90
26745;DHT22;14342;50.960;13.880;2022-11-13T05:53:07;2.40;99.90
26745;DHT22;14342;50.960;13.880;2022-11-13T05:54:09;2.40;99.90
26745;DHT22;14342;50.960;13.880;2022-11-13T05:55:10;2.50;99.90
26745;DHT22;14342;50.960;13.880;2022-11-13T05:56:12;2.50;99.90
26745;DHT22;14342;50.960;13.880;2022-11-13T05:57:13;2.60;99.90
26745;DHT22;14342;50.960;13.880;2022-11-13T05:58:15;2.60;99.90
26745;DHT22;14342;50.960;13.880;2022-11-13T05:59:15;2.70;99.90
26745;DHT22;14342;50.960;13.880;2022-11-13T06:00:18;2.80;99.90
26745;DHT22;14342;50.960;13.880;2022-11-13T06:01:20;2.80;99.90
26745;DHT22;14342;50.960;13.880;2022-11-13T06:02:22;2.80;99.90
26745;DHT22;14342;50.960;13.880;2022-11-13T06:03:22;2.80;99.90
26745;DHT22;14342;50.960;13.880;2022-11-13T06:04:24;2.80;99.90
26745;DHT22;14342;50.960;13.880;2022-11-13T06:05:24;2.90;99.90
26745;DHT22;14342;50.960;13.880;2022-11-13T06:06:27;2.90;99.90
26745;DHT22;14342;50.960;13.880;2022-11-13T06:07:28;3.00;99.90
26745;DHT22;14342;50.960;13.880;2022-11-13T06:08:29;3.00;99.90
26745;DHT22;14342;50.960;13.880;2022-11-13T06:09:30;3.00;99.90
26745;DHT22;14342;50.960;13.880;2022-11-13T06:10:32;3.10;99.90
26745;DHT22;14342;50.960;13.880;2022-11-13T06:11:32;3.10;99.90
26745;DHT22;14342;50.960;13.880;2022-11-13T06:12:34;3.10;99.90
26745;DHT22;14342;50.960;13.880;2022-11-13T06:13:34;3.10;99.90
26745;DHT22;14342;50.960;13.880;2022-11-13T06:14:36;3.20;99.90
26745;DHT22;14342;50.960;13.880;2022-11-13T06:15:38;3.20;99.90
26745;DHT22;14342;50.960;13.880;2022-11-13T06:16:40;3.20;99.90
26745;DHT22;14342;50.960;13.880;2022-11-13T06:17:44;3.20;99.90
26745;DHT22;14342;50.960;13.880;2022-11-13T06:18:46;3.30;99.90
26745;DHT22;14342;50.960;13.880;2022-11-13T06:19:47;3.30;99.90
26745;DHT22;14342;50.960;13.880;2022-11-13T06:20:49;3.30;99.90
26745;DHT22;14342;50.960;13.880;2022-11-13T06:21:49;3.30;99.90
26745;DHT22;14342;50.960;13.880;2022-11-13T06:22:51;3.40;99.90
26745;DHT22;14342;50.960;13.880;2022-11-13T06:23:52;3.20;99.90
26745;DHT22;14342;50.960;13.880;2022-11-13T06:24:53;3.20;99.90
26745;DHT22;14342;50.960;13.880;2022-11-13T06:25:58;3.30;99.90
26745;DHT22;14342;50.960;13.880;2022-11-13T06:27:00;3.30;99.90
26745;DHT22;14342;50.960;13.880;2022-11-13T06:28:00;3.30;99.90
26745;DHT22;14342;50.960;13.880;2022-11-13T06:29:02;3.40;99.90